Time;durP1;ratioP1;P1;durP2;ratioP2;P2;SDS_P1;SDS_P2;PMS_P1;PMS_P2;Temp;Humidity;BMP_temperature;BMP_pressure;BME280_temperature;BME280_humidity;BME280_pressure;Samples;Min_cycle;Max_cycle;Signal;HPM_P1;HPM_P2
2023/07/18 04:01:10;;;;;;;;;;;17.90;99.90;;;;;;5649149;23;19925;-73
2023/07/18 04:03:37;;;;;;;;;;;17.80;99.90;;;;;;4994717;28;20393;-73
2023/07/18 04:06:02;;;;;;;;;;;17.70;99.90;;;;;;4994566;28;19957;-72
2023/07/18 04:08:28;;;;;;;;;;;17.60;99.90;;;;;;4995258;28;19910;-72
2023/07/18 04:10:56;;;;;;;;;;;17.40;99.90;;;;;;4993901;28;19918;-73
2023/07/18 04:13:21;;;;;;;;;;;17.40;99.90;;;;;;4993813;28;19941;-73
2023/07/18 04:15:47;;;;;;;;;;;17.30;99.90;;;;;;4993529;28;19969;-73
2023/07/18 04:18:12;;;;;;;;;;;17.30;99.90;;;;;;4993355;28;19947;-73
2023/07/18 04:20:38;;;;;;;;;;;17.30;99.90;;;;;;4993390;28;19993;-73
2023/07/18 04:23:03;;;;;;;;;;;17.10;99.90;;;;;;4994319;28;20343;-73
2023/07/18 04:25:30;;;;;;;;;;;17.10;99.90;;;;;;4996471;28;20283;-73
2023/07/18 04:27:55;;;;;;;;;;;17.10;99.90;;;;;;4995969;28;20281;-68
2023/07/18 04:30:20;;;;;;;;;;;17.20;99.90;;;;;;4995179;28;19914;-68
2023/07/18 04:32:46;;;;;;;;;;;17.20;99.90;;;;;;4995423;28;20364;-67
2023/07/18 04:35:12;;;;;;;;;;;17.20;99.90;;;;;;4995028;28;19910;-68
2023/07/18 04:37:37;;;;;;;;;;;17.10;99.90;;;;;;4993219;28;20259;-67
2023/07/18 04:40:05;;;;;;;;;;;17.00;99.90;;;;;;4994931;28;20438;-68
2023/07/18 04:42:31;;;;;;;;;;;17.10;99.90;;;;;;4995147;28;19996;-68
2023/07/18 04:44:57;;;;;;;;;;;17.10;99.90;;;;;;4995416;28;20015;-68
2023/07/18 04:47:23;;;;;;;;;;;17.10;99.90;;;;;;4993691;28;19913;-68
2023/07/18 04:49:48;;;;;;;;;;;17.10;99.90;;;;;;4994907;28;19920;-68
2023/07/18 04:52:15;;;;;;;;;;;17.20;99.90;;;;;;4995678;28;20286;-68
2023/07/18 04:54:41;;;;;;;;;;;17.30;99.90;;;;;;4998165;28;19910;-68
2023/07/18 04:57:06;;;;;;;;;;;17.40;99.90;;;;;;5014910;28;19941;-69
2023/07/18 04:59:32;;;;;;;;;;;17.50;99.90;;;;;;5008933;28;19921;-68
2023/07/18 05:01:57;;;;;;;;;;;17.60;99.90;;;;;;5004037;28;20014;-69
2023/07/18 05:04:25;;;;;;;;;;;17.60;99.90;;;;;;5001942;28;20005;-69
2023/07/18 05:06:50;;;;;;;;;;;17.50;99.90;;;;;;4979527;28;20279;-69
2023/07/18 05:09:17;;;;;;;;;;;17.60;99.90;;;;;;4979238;28;19918;-71
2023/07/18 05:11:42;;;;;;;;;;;17.60;99.90;;;;;;4974789;28;19949;-68
2023/07/18 05:14:08;;;;;;;;;;;17.70;99.90;;;;;;4975837;28;20287;-68
2023/07/18 05:16:33;;;;;;;;;;;17.60;99.90;;;;;;4975156;28;19918;-68
2023/07/18 05:18:59;;;;;;;;;;;17.60;99.90;;;;;;4976011;28;19910;-68
2023/07/18 05:21:24;;;;;;;;;;;17.70;99.90;;;;;;4975777;28;19917;-69
2023/07/18 05:23:50;;;;;;;;;;;17.80;99.90;;;;;;4975761;28;19917;-68
2023/07/18 05:26:15;;;;;;;;;;;17.80;99.90;;;;;;4975739;28;20350;-68
2023/07/18 05:28:41;;;;;;;;;;;17.90;99.90;;;;;;4977867;28;20314;-72
2023/07/18 05:31:08;;;;;;;;;;;18.00;99.90;;;;;;4978745;28;19910;-72
2023/07/18 05:33:33;;;;;;;;;;;18.10;99.90;;;;;;4980812;28;19917;-73
2023/07/18 05:35:59;;;;;;;;;;;18.10;99.90;;;;;;4985506;28;19910;-73
2023/07/18 05:38:25;;;;;;;;;;;18.10;99.90;;;;;;5000162;28;19910;-73
2023/07/18 05:40:50;;;;;;;;;;;18.10;99.90;;;;;;4998542;28;19910;-73
2023/07/18 05:43:18;;;;;;;;;;;18.20;99.90;;;;;;4997627;28;19917;-73
2023/07/18 05:45:43;;;;;;;;;;;18.20;99.90;;;;;;4996896;28;19910;-72
2023/07/18 05:48:09;;;;;;;;;;;18.20;99.90;;;;;;4997891;28;20366;-72
2023/07/18 05:50:35;;;;;;;;;;;18.10;99.90;;;;;;4997970;28;19913;-72
2023/07/18 05:53:00;;;;;;;;;;;18.10;99.90;;;;;;4996103;28;19969;-72
2023/07/18 05:55:27;;;;;;;;;;;18.20;99.90;;;;;;4996133;28;19909;-72
2023/07/18 05:57:53;;;;;;;;;;;18.30;99.90;;;;;;4997487;28;19941;-72
2023/07/18 06:00:18;;;;;;;;;;;18.30;99.90;;;;;;4996400;28;19917;-71
2023/07/18 06:02:44;;;;;;;;;;;18.40;99.90;;;;;;4997489;28;20358;-72
2023/07/18 06:05:10;;;;;;;;;;;18.60;99.90;;;;;;4997368;28;19909;-72
2023/07/18 06:07:36;;;;;;;;;;;18.70;99.90;;;;;;4976939;28;19911;-63
2023/07/18 06:10:01;;;;;;;;;;;18.70;99.90;;;;;;4977858;28;19914;-64
2023/07/18 06:12:27;;;;;;;;;;;18.70;99.90;;;;;;4977374;28;20000;-64
2023/07/18 06:14:54;;;;;;;;;;;18.80;99.90;;;;;;4977476;28;19914;-64
2023/07/18 06:17:20;;;;;;;;;;;18.80;99.90;;;;;;4976793;28;19975;-64
2023/07/18 06:19:48;;;;;;;;;;;19.00;99.90;;;;;;4977120;28;19914;-65
2023/07/18 06:22:14;;;;;;;;;;;19.10;99.90;;;;;;4976888;28;19910;-64
2023/07/18 06:24:39;;;;;;;;;;;19.10;99.90;;;;;;4977124;28;19933;-64
2023/07/18 06:27:05;;;;;;;;;;;19.30;99.90;;;;;;4976885;28;19934;-63
2023/07/18 06:29:31;;;;;;;;;;;19.40;99.90;;;;;;4977890;28;19914;-64
2023/07/18 06:31:56;;;;;;;;;;;19.40;99.90;;;;;;4975941;28;19910;-62
2023/07/18 06:34:22;;;;;;;;;;;19.50;99.90;;;;;;4977032;28;20030;-64
2023/07/18 06:36:48;;;;;;;;;;;19.50;99.90;;;;;;4988764;28;19909;-63
2023/07/18 06:39:14;;;;;;;;;;;19.50;99.90;;;;;;4996153;28;19957;-64
2023/07/18 06:41:39;;;;;;;;;;;19.60;99.90;;;;;;4996377;28;19996;-64
2023/07/18 06:44:07;;;;;;;;;;;19.60;99.90;;;;;;4996557;28;19913;-64
2023/07/18 06:46:32;;;;;;;;;;;19.70;99.90;;;;;;4997172;28;19914;-64
2023/07/18 06:48:58;;;;;;;;;;;19.80;99.90;;;;;;4997591;28;19910;-64
2023/07/18 06:51:23;;;;;;;;;;;20.00;99.90;;;;;;4996570;28;19921;-65
2023/07/18 06:53:49;;;;;;;;;;;20.10;99.80;;;;;;4996099;28;19910;-65
2023/07/18 06:56:14;;;;;;;;;;;20.20;99.80;;;;;;4996725;28;19917;-65
2023/07/18 06:58:41;;;;;;;;;;;20.30;99.30;;;;;;4996118;28;19960;-65
2023/07/18 07:01:07;;;;;;;;;;;20.40;98.80;;;;;;4996209;28;20330;-63
2023/07/18 07:03:32;;;;;;;;;;;20.50;98.60;;;;;;4994583;28;19914;-64
2023/07/18 07:05:58;;;;;;;;;;;20.60;98.60;;;;;;4995799;28;20310;-64
2023/07/18 07:08:24;;;;;;;;;;;20.70;98.30;;;;;;4995548;28;19910;-63
2023/07/18 07:10:51;;;;;;;;;;;20.80;98.20;;;;;;4995881;28;19913;-64
2023/07/18 07:13:17;;;;;;;;;;;20.80;98.30;;;;;;4994546;28;19910;-64
2023/07/18 07:15:42;;;;;;;;;;;20.90;98.20;;;;;;4994399;28;19964;-64
2023/07/18 07:18:08;;;;;;;;;;;21.00;97.70;;;;;;4994368;28;19917;-64
2023/07/18 07:20:34;;;;;;;;;;;21.10;97.50;;;;;;4995858;28;19937;-63
2023/07/18 07:22:59;;;;;;;;;;;21.30;96.90;;;;;;4995443;28;19986;-63
2023/07/18 07:25:26;;;;;;;;;;;21.50;96.50;;;;;;4996121;28;19910;-64
2023/07/18 07:27:51;;;;;;;;;;;21.50;96.40;;;;;;4994314;28;19916;-64
2023/07/18 07:30:17;;;;;;;;;;;21.60;96.20;;;;;;4994997;28;19913;-63
2023/07/18 07:32:43;;;;;;;;;;;21.60;96.10;;;;;;4995466;28;19913;-63
2023/07/18 07:35:09;;;;;;;;;;;21.70;96.10;;;;;;4995756;28;19909;-64
2023/07/18 07:37:34;;;;;;;;;;;21.80;95.90;;;;;;4993698;28;19910;-64
2023/07/18 07:40:00;;;;;;;;;;;21.90;95.70;;;;;;4994955;28;19910;-63
2023/07/18 07:42:25;;;;;;;;;;;22.00;95.50;;;;;;4995025;28;20359;-64
2023/07/18 07:44:50;;;;;;;;;;;22.10;95.10;;;;;;4995248;28;20008;-62
2023/07/18 07:47:16;;;;;;;;;;;22.20;94.80;;;;;;4995037;28;19910;-63
2023/07/18 07:49:41;;;;;;;;;;;22.30;94.90;;;;;;4994770;28;19921;-63
2023/07/18 07:52:07;;;;;;;;;;;22.40;94.60;;;;;;4993842;28;19959;-63
2023/07/18 07:54:32;;;;;;;;;;;22.60;94.30;;;;;;4994967;28;20389;-63
2023/07/18 07:56:58;;;;;;;;;;;22.70;94.20;;;;;;4994735;28;20052;-63
2023/07/18 07:59:23;;;;;;;;;;;22.80;93.90;;;;;;4994704;28;19909;-63
2023/07/18 08:01:49;;;;;;;;;;;23.00;93.30;;;;;;4993508;28;20017;-63
2023/07/18 08:04:14;;;;;;;;;;;23.20;93.00;;;;;;4994593;28;19914;-64
2023/07/18 08:06:39;;;;;;;;;;;23.40;92.50;;;;;;4994129;28;20334;-63
2023/07/18 08:09:05;;;;;;;;;;;23.50;92.30;;;;;;4994541;28;19913;-63
2023/07/18 08:11:31;;;;;;;;;;;23.50;91.70;;;;;;4994869;28;19914;-64
2023/07/18 08:13:56;;;;;;;;;;;23.70;91.80;;;;;;4995118;28;20259;-64
2023/07/18 08:16:22;;;;;;;;;;;23.90;91.60;;;;;;4993727;28;20012;-64
2023/07/18 08:18:47;;;;;;;;;;;24.70;91.00;;;;;;4994275;28;19917;-64
2023/07/18 08:21:13;;;;;;;;;;;26.90;87.50;;;;;;4994120;28;19914;-64
2023/07/18 08:23:38;;;;;;;;;;;29.50;81.30;;;;;;4993981;28;19910;-64
2023/07/18 08:26:04;;;;;;;;;;;31.50;75.20;;;;;;4994375;28;19909;-64
2023/07/18 08:28:29;;;;;;;;;;;33.30;70.60;;;;;;4992915;28;19910;-64
2023/07/18 08:30:55;;;;;;;;;;;34.30;67.40;;;;;;4994130;28;19921;-63
2023/07/18 08:33:21;;;;;;;;;;;34.40;64.80;;;;;;4994085;28;20007;-62
2023/07/18 08:35:48;;;;;;;;;;;34.90;64.00;;;;;;4993101;28;20297;-63
2023/07/18 08:38:14;;;;;;;;;;;36.00;61.60;;;;;;4993839;28;19916;-63
2023/07/18 08:40:46;;;;;;;;;;;36.00;61.30;;;;;;4993961;28;20330;-63
2023/07/18 08:43:14;;;;;;;;;;;36.60;59.50;;;;;;4993969;28;19932;-63
2023/07/18 08:45:40;;;;;;;;;;;36.80;58.80;;;;;;4993871;28;19964;-63
2023/07/18 08:48:05;;;;;;;;;;;38.30;57.50;;;;;;4992564;28;19910;-63
2023/07/18 08:50:32;;;;;;;;;;;39.40;56.10;;;;;;4993701;28;19969;-63
2023/07/18 08:52:58;;;;;;;;;;;39.60;55.10;;;;;;4993161;28;20341;-63
2023/07/18 08:55:23;;;;;;;;;;;39.50;54.60;;;;;;4994263;28;19961;-64
2023/07/18 08:57:50;;;;;;;;;;;39.50;54.50;;;;;;4992391;28;19909;-64
2023/07/18 09:00:20;;;;;;;;;;;39.80;53.70;;;;;;4991969;28;19917;-64
2023/07/18 09:02:48;;;;;;;;;;;40.00;53.40;;;;;;4996536;28;19914;-64
2023/07/18 09:05:34;;;;;;;;;;;40.10;52.90;;;;;;4998049;28;19910;-64
2023/07/18 09:08:00;;;;;;;;;;;40.40;52.60;;;;;;4997623;28;19917;-64
2023/07/18 09:10:25;;;;;;;;;;;41.10;51.90;;;;;;4997386;28;19917;-63
2023/07/18 09:12:51;;;;;;;;;;;40.20;51.50;;;;;;4997270;28;19956;-64
2023/07/18 09:15:17;;;;;;;;;;;39.30;51.80;;;;;;4996216;28;19957;-64
2023/07/18 09:17:47;;;;;;;;;;;38.60;52.80;;;;;;4997588;28;19938;-64
2023/07/18 09:20:16;;;;;;;;;;;38.80;52.50;;;;;;4997458;28;19914;-64
2023/07/18 09:22:41;;;;;;;;;;;39.10;52.80;;;;;;4997348;28;19944;-64
2023/07/18 09:25:07;;;;;;;;;;;39.00;52.20;;;;;;4997503;28;19957;-64
2023/07/18 09:27:35;;;;;;;;;;;39.40;52.40;;;;;;4997758;28;20356;-62
2023/07/18 09:30:00;;;;;;;;;;;39.30;51.50;;;;;;4997665;28;19913;-62
2023/07/18 09:32:26;;;;;;;;;;;39.50;51.40;;;;;;4997403;28;19960;-63
2023/07/18 09:34:56;;;;;;;;;;;40.30;51.00;;;;;;4997197;28;19910;-63
2023/07/18 09:37:21;;;;;;;;;;;41.10;50.80;;;;;;4996912;28;19909;-62
2023/07/18 09:39:47;;;;;;;;;;;41.20;49.90;;;;;;4998376;28;19910;-64
2023/07/18 09:42:14;;;;;;;;;;;38.90;51.10;;;;;;4997428;28;19982;-63
2023/07/18 09:44:40;;;;;;;;;;;37.40;52.20;;;;;;4997085;28;19914;-63
2023/07/18 09:47:06;;;;;;;;;;;36.60;52.70;;;;;;4997989;28;19922;-63
2023/07/18 09:49:32;;;;;;;;;;;35.60;53.60;;;;;;4996128;28;20302;-63
2023/07/18 09:52:05;;;;;;;;;;;34.50;55.00;;;;;;4996886;28;20323;-63
2023/07/18 09:54:31;;;;;;;;;;;33.30;56.40;;;;;;4997117;28;19932;-64
2023/07/18 09:56:59;;;;;;;;;;;32.00;57.40;;;;;;4997063;28;19910;-63
2023/07/18 09:59:26;;;;;;;;;;;30.90;58.90;;;;;;4995650;28;19958;-63
2023/07/18 10:01:52;;;;;;;;;;;30.40;59.50;;;;;;4996747;28;19975;-62
2023/07/18 10:04:18;;;;;;;;;;;29.90;60.70;;;;;;4997018;28;19910;-62
2023/07/18 10:06:45;;;;;;;;;;;29.60;61.10;;;;;;4996558;28;20286;-63
2023/07/18 10:09:10;;;;;;;;;;;29.20;61.20;;;;;;4996922;28;19921;-63
2023/07/18 10:11:54;;;;;;;;;;;29.00;61.80;;;;;;4996783;28;19910;-64
2023/07/18 10:14:19;;;;;;;;;;;29.20;62.20;;;;;;4996490;28;20461;-63
2023/07/18 10:16:52;;;;;;;;;;;29.30;62.20;;;;;;4997477;28;19957;-63
2023/07/18 10:19:19;;;;;;;;;;;30.00;61.70;;;;;;5027380;23;19936;-63
2023/07/18 10:21:50;;;;;;;;;;;29.90;61.10;;;;;;5006600;28;20202;-64
2023/07/18 10:24:23;;;;;;;;;;;30.20;61.30;;;;;;5014414;28;19909;-64
2023/07/18 10:27:15;;;;;;;;;;;30.40;61.30;;;;;;5015109;28;19913;-64
2023/07/18 10:30:00;;;;;;;;;;;30.80;61.10;;;;;;4995140;28;19920;-63
2023/07/18 10:32:30;;;;;;;;;;;30.80;60.00;;;;;;4996732;28;19910;-63
2023/07/18 10:34:55;;;;;;;;;;;30.20;60.90;;;;;;4996291;28;20005;-64
2023/07/18 10:37:23;;;;;;;;;;;29.40;61.70;;;;;;4996107;28;19946;-65
2023/07/18 10:39:49;;;;;;;;;;;29.20;62.80;;;;;;4994608;28;19910;-64
2023/07/18 10:42:23;;;;;;;;;;;29.90;62.30;;;;;;4995892;28;19964;-63
2023/07/18 10:44:53;;;;;;;;;;;31.40;59.90;;;;;;4995940;28;19910;-63
2023/07/18 10:47:19;;;;;;;;;;;32.40;59.10;;;;;;4995804;28;20052;-64
2023/07/18 10:49:45;;;;;;;;;;;32.40;58.90;;;;;;4995635;28;20384;-63
2023/07/18 10:52:10;;;;;;;;;;;31.60;59.00;;;;;;4995864;28;20386;-64
2023/07/18 10:54:36;;;;;;;;;;;30.80;60.20;;;;;;4995796;28;19910;-64
2023/07/18 10:57:03;;;;;;;;;;;30.30;60.90;;;;;;4994607;28;20375;-64
2023/07/18 10:59:28;;;;;;;;;;;29.90;61.20;;;;;;4995696;28;20446;-64
2023/07/18 11:01:54;;;;;;;;;;;29.30;62.40;;;;;;4995645;28;19941;-64
2023/07/18 11:04:22;;;;;;;;;;;29.10;62.80;;;;;;4996381;28;19996;-64
2023/07/18 11:06:49;;;;;;;;;;;28.90;63.50;;;;;;4997859;28;20349;-65
2023/07/18 11:09:15;;;;;;;;;;;28.70;63.60;;;;;;4996820;28;19918;-64
2023/07/18 11:11:40;;;;;;;;;;;28.70;63.60;;;;;;4996642;28;19910;-65
2023/07/18 11:14:06;;;;;;;;;;;28.60;63.50;;;;;;4996214;28;19910;-64
2023/07/18 11:16:31;;;;;;;;;;;28.30;64.10;;;;;;4996336;28;19914;-66
2023/07/18 11:18:59;;;;;;;;;;;28.00;65.40;;;;;;4996260;28;20370;-64
2023/07/18 11:21:25;;;;;;;;;;;28.00;64.70;;;;;;5001506;28;20004;-67
2023/07/18 11:23:51;;;;;;;;;;;28.00;65.60;;;;;;4997040;28;19962;-68
2023/07/18 11:26:17;;;;;;;;;;;27.70;65.20;;;;;;4994142;28;19910;-69
2023/07/18 11:28:44;;;;;;;;;;;27.70;65.60;;;;;;4994437;28;19953;-69
2023/07/18 11:31:22;;;;;;;;;;;28.00;66.40;;;;;;4995518;28;20004;-69
2023/07/18 11:33:49;;;;;;;;;;;28.30;66.30;;;;;;4993606;28;19910;-69
2023/07/18 11:36:14;;;;;;;;;;;28.80;66.30;;;;;;4993559;28;19917;-67
2023/07/18 11:38:40;;;;;;;;;;;29.30;65.90;;;;;;4994950;28;19910;-68
2023/07/18 11:41:11;;;;;;;;;;;29.40;64.70;;;;;;4993700;28;19917;-68
2023/07/18 11:43:37;;;;;;;;;;;29.30;64.50;;;;;;4994874;28;20286;-68
2023/07/18 11:46:03;;;;;;;;;;;29.40;64.70;;;;;;4995095;28;19910;-68
2023/07/18 11:48:28;;;;;;;;;;;29.70;64.90;;;;;;4992002;28;20379;-67
2023/07/18 11:50:54;;;;;;;;;;;29.80;64.40;;;;;;4994942;28;20297;-68
2023/07/18 11:53:26;;;;;;;;;;;29.80;64.00;;;;;;4990228;28;19914;-67
2023/07/18 11:55:52;;;;;;;;;;;29.60;63.60;;;;;;4987853;28;19910;-68
2023/07/18 11:58:18;;;;;;;;;;;29.10;64.10;;;;;;4984434;28;19910;-68
2023/07/18 12:00:44;;;;;;;;;;;28.90;64.00;;;;;;4988196;28;19933;-67
2023/07/18 12:03:09;;;;;;;;;;;28.90;64.20;;;;;;4989443;28;19910;-67
2023/07/18 12:05:35;;;;;;;;;;;28.80;64.00;;;;;;4991328;28;19918;-68
2023/07/18 12:08:00;;;;;;;;;;;28.60;64.50;;;;;;4995137;28;19914;-68
2023/07/18 12:10:26;;;;;;;;;;;28.90;64.70;;;;;;4994482;28;20008;-67
2023/07/18 12:12:51;;;;;;;;;;;29.20;64.20;;;;;;4994460;28;19961;-67
2023/07/18 12:15:16;;;;;;;;;;;29.30;64.10;;;;;;4994380;28;20008;-67
2023/07/18 12:17:42;;;;;;;;;;;29.20;64.40;;;;;;4994140;28;19914;-67
2023/07/18 12:20:08;;;;;;;;;;;29.40;64.70;;;;;;4991696;28;19983;-66
2023/07/18 12:22:33;;;;;;;;;;;29.50;64.50;;;;;;4983191;28;19910;-66
2023/07/18 12:25:01;;;;;;;;;;;29.60;64.90;;;;;;4990062;28;19992;-66
2023/07/18 12:27:27;;;;;;;;;;;29.80;64.30;;;;;;4990739;28;19964;-65
2023/07/18 12:29:52;;;;;;;;;;;29.80;64.30;;;;;;4994057;28;19914;-65
2023/07/18 12:32:17;;;;;;;;;;;29.70;63.90;;;;;;4993947;28;19945;-67
2023/07/18 12:34:43;;;;;;;;;;;29.40;64.00;;;;;;4993694;28;19913;-65
2023/07/18 12:37:08;;;;;;;;;;;29.30;64.40;;;;;;4993458;28;19916;-65
2023/07/18 12:39:34;;;;;;;;;;;29.10;66.40;;;;;;4992977;28;19945;-65
2023/07/18 12:42:00;;;;;;;;;;;29.10;64.80;;;;;;4992809;28;19976;-65
2023/07/18 12:44:38;;;;;;;;;;;28.90;64.40;;;;;;4993199;28;19929;-65
2023/07/18 12:47:04;;;;;;;;;;;28.80;64.90;;;;;;4992730;28;19910;-65
2023/07/18 12:49:29;;;;;;;;;;;28.80;65.00;;;;;;4993854;28;19914;-65
2023/07/18 12:51:55;;;;;;;;;;;28.60;65.30;;;;;;4993936;28;19914;-65
2023/07/18 12:54:20;;;;;;;;;;;28.20;66.00;;;;;;4994241;28;19910;-65
2023/07/18 12:56:46;;;;;;;;;;;28.10;65.90;;;;;;4994164;28;20345;-65
2023/07/18 12:59:11;;;;;;;;;;;28.30;66.00;;;;;;4993844;28;20001;-65
2023/07/18 13:01:37;;;;;;;;;;;28.30;66.10;;;;;;4994190;28;19910;-64
2023/07/18 13:04:03;;;;;;;;;;;28.50;66.60;;;;;;4992770;28;20334;-64
2023/07/18 13:06:29;;;;;;;;;;;28.50;66.60;;;;;;4994312;28;19910;-64
2023/07/18 13:08:55;;;;;;;;;;;28.50;66.40;;;;;;4994207;28;19914;-64
2023/07/18 13:11:20;;;;;;;;;;;28.50;66.20;;;;;;4993975;28;19914;-65
2023/07/18 13:13:46;;;;;;;;;;;28.40;66.10;;;;;;4993741;28;19909;-66
2023/07/18 13:16:11;;;;;;;;;;;28.30;67.00;;;;;;4994010;28;19913;-64
2023/07/18 13:18:37;;;;;;;;;;;28.30;67.90;;;;;;4994089;28;19968;-65
2023/07/18 13:21:03;;;;;;;;;;;28.40;67.50;;;;;;4993760;28;20397;-65
2023/07/18 13:23:29;;;;;;;;;;;28.40;67.10;;;;;;4994081;28;19910;-65
2023/07/18 13:25:55;;;;;;;;;;;28.40;67.40;;;;;;4994987;28;20060;-70
2023/07/18 13:28:21;;;;;;;;;;;28.60;67.70;;;;;;4995560;28;19973;-70
2023/07/18 13:30:46;;;;;;;;;;;28.50;66.90;;;;;;4996028;28;19949;-70
2023/07/18 13:33:12;;;;;;;;;;;28.60;67.70;;;;;;4996555;28;20394;-70
2023/07/18 13:35:37;;;;;;;;;;;28.60;67.40;;;;;;4996583;28;19953;-70
2023/07/18 13:38:03;;;;;;;;;;;28.70;67.20;;;;;;4997392;28;20439;-70
2023/07/18 13:40:28;;;;;;;;;;;28.70;67.00;;;;;;4995771;28;19910;-70
2023/07/18 13:42:54;;;;;;;;;;;28.70;67.70;;;;;;4993842;28;19917;-70
2023/07/18 13:45:20;;;;;;;;;;;28.80;67.90;;;;;;4997038;28;19953;-70
2023/07/18 13:47:45;;;;;;;;;;;28.80;67.30;;;;;;4999150;28;19913;-70
2023/07/18 13:50:11;;;;;;;;;;;28.80;66.90;;;;;;5000549;28;19913;-70
2023/07/18 13:52:36;;;;;;;;;;;28.80;66.70;;;;;;5001866;28;19953;-70
2023/07/18 13:55:02;;;;;;;;;;;28.90;67.00;;;;;;5002161;28;20323;-70
2023/07/18 13:57:27;;;;;;;;;;;29.00;67.10;;;;;;4996802;28;19932;-71
2023/07/18 13:59:53;;;;;;;;;;;29.00;66.40;;;;;;4997013;28;20365;-71
2023/07/18 14:02:18;;;;;;;;;;;29.00;66.90;;;;;;4999196;28;19996;-71
2023/07/18 14:04:45;;;;;;;;;;;28.90;67.00;;;;;;5000271;28;19910;-71
2023/07/18 14:07:10;;;;;;;;;;;28.80;66.70;;;;;;4999820;28;19914;-71
2023/07/18 14:09:35;;;;;;;;;;;28.60;67.10;;;;;;4998000;28;20009;-71
2023/07/18 14:12:01;;;;;;;;;;;28.60;68.20;;;;;;4999364;28;19909;-72
2023/07/18 14:14:26;;;;;;;;;;;28.80;67.70;;;;;;4999359;28;19973;-72
2023/07/18 14:16:52;;;;;;;;;;;29.10;67.50;;;;;;5000236;28;20051;-72
2023/07/18 14:19:17;;;;;;;;;;;29.10;67.00;;;;;;4997054;28;19925;-72
2023/07/18 14:21:43;;;;;;;;;;;29.10;66.90;;;;;;4996396;28;19949;-72
2023/07/18 14:24:08;;;;;;;;;;;29.20;67.00;;;;;;4997855;28;19910;-73
2023/07/18 14:26:34;;;;;;;;;;;29.30;66.90;;;;;;4996645;28;19916;-72
2023/07/18 14:29:00;;;;;;;;;;;29.30;66.80;;;;;;4997481;28;20359;-71
2023/07/18 14:31:25;;;;;;;;;;;29.50;67.20;;;;;;4997628;28;19964;-72
2023/07/18 14:33:51;;;;;;;;;;;29.50;66.80;;;;;;4995605;28;19910;-71
2023/07/18 14:36:18;;;;;;;;;;;29.60;67.30;;;;;;4995934;28;19917;-72
2023/07/18 14:38:45;;;;;;;;;;;29.80;67.10;;;;;;4995154;28;19922;-71
2023/07/18 14:41:12;;;;;;;;;;;29.80;66.80;;;;;;4984180;28;19909;-70
2023/07/18 14:43:39;;;;;;;;;;;29.80;66.80;;;;;;4994387;28;19949;-71
2023/07/18 14:46:05;;;;;;;;;;;29.60;67.10;;;;;;4995533;28;19917;-71
2023/07/18 14:48:30;;;;;;;;;;;29.60;67.50;;;;;;4993440;28;19913;-71
2023/07/18 14:50:56;;;;;;;;;;;29.80;67.70;;;;;;4991028;28;19925;-71
2023/07/18 14:53:21;;;;;;;;;;;29.90;67.20;;;;;;4983206;28;19914;-72
2023/07/18 14:55:47;;;;;;;;;;;29.80;67.00;;;;;;4997214;28;19953;-72
2023/07/18 14:58:12;;;;;;;;;;;29.80;67.40;;;;;;4998828;28;19910;-72
2023/07/18 15:00:38;;;;;;;;;;;29.70;67.70;;;;;;5001167;28;19910;-72
2023/07/18 15:03:04;;;;;;;;;;;29.70;67.30;;;;;;4998938;28;19910;-72
2023/07/18 15:05:30;;;;;;;;;;;29.70;68.00;;;;;;5000180;28;20004;-72
2023/07/18 15:07:55;;;;;;;;;;;29.70;67.20;;;;;;5002223;28;19945;-72
2023/07/18 15:10:21;;;;;;;;;;;29.60;67.60;;;;;;5004006;28;19925;-72
2023/07/18 15:12:47;;;;;;;;;;;29.70;67.80;;;;;;5001855;28;19972;-73
2023/07/18 15:15:13;;;;;;;;;;;29.70;67.70;;;;;;5000687;28;20291;-73
2023/07/18 15:17:39;;;;;;;;;;;29.60;67.20;;;;;;4995691;28;19937;-72
2023/07/18 15:20:08;;;;;;;;;;;29.50;67.70;;;;;;4996021;28;20313;-73
2023/07/18 15:22:37;;;;;;;;;;;29.60;67.70;;;;;;4996431;28;19917;-72
2023/07/18 15:25:05;;;;;;;;;;;29.60;67.60;;;;;;4998771;28;20323;-72
2023/07/18 15:27:40;;;;;;;;;;;29.70;67.80;;;;;;4996355;28;19916;-72
2023/07/18 15:30:06;;;;;;;;;;;29.90;67.50;;;;;;4996263;28;19918;-71
2023/07/18 15:32:32;;;;;;;;;;;29.80;67.40;;;;;;4996368;28;19957;-71
2023/07/18 15:34:58;;;;;;;;;;;29.70;67.90;;;;;;4996906;28;19921;-72
2023/07/18 15:37:24;;;;;;;;;;;29.60;68.10;;;;;;5002275;28;19910;-72
2023/07/18 15:39:49;;;;;;;;;;;29.50;68.20;;;;;;5001298;28;19909;-72
2023/07/18 15:42:15;;;;;;;;;;;29.50;68.10;;;;;;5000464;28;19918;-70
2023/07/18 15:44:42;;;;;;;;;;;29.40;68.00;;;;;;5007957;28;19909;-69
2023/07/18 15:47:07;;;;;;;;;;;29.40;68.40;;;;;;4996410;28;19949;-70
2023/07/18 15:49:34;;;;;;;;;;;29.20;68.60;;;;;;4992197;28;19969;-69
2023/07/18 15:52:00;;;;;;;;;;;29.20;69.00;;;;;;4999731;28;19921;-69
2023/07/18 15:54:25;;;;;;;;;;;29.50;68.70;;;;;;4996580;28;20235;-69
2023/07/18 15:56:51;;;;;;;;;;;29.40;68.80;;;;;;4998161;28;20009;-70
2023/07/18 15:59:16;;;;;;;;;;;29.30;69.30;;;;;;4997029;28;19910;-70
2023/07/18 16:01:41;;;;;;;;;;;29.30;69.30;;;;;;4998181;28;19910;-68
2023/07/18 16:04:07;;;;;;;;;;;29.30;69.50;;;;;;4990698;28;19924;-68
2023/07/18 16:06:32;;;;;;;;;;;29.30;71.10;;;;;;4981504;28;19922;-66
2023/07/18 16:08:58;;;;;;;;;;;29.10;71.10;;;;;;4991924;28;19965;-68
2023/07/18 16:11:24;;;;;;;;;;;29.10;69.50;;;;;;4995369;28;19960;-68
2023/07/18 16:13:49;;;;;;;;;;;29.10;70.10;;;;;;4989582;28;19914;-68
2023/07/18 16:16:16;;;;;;;;;;;29.00;70.00;;;;;;4991060;28;20318;-68
2023/07/18 16:18:55;;;;;;;;;;;28.90;70.50;;;;;;4984026;28;19928;-70
2023/07/18 16:21:21;;;;;;;;;;;28.90;70.50;;;;;;4979959;28;19910;-68
2023/07/18 16:23:47;;;;;;;;;;;28.80;72.90;;;;;;4981240;28;19933;-67
2023/07/18 16:26:13;;;;;;;;;;;28.70;72.00;;;;;;4980493;28;19914;-68
2023/07/18 16:28:39;;;;;;;;;;;28.60;71.00;;;;;;4989703;28;20367;-68
2023/07/18 16:31:06;;;;;;;;;;;28.50;72.30;;;;;;4997732;28;21536;-68
2023/07/18 16:33:31;;;;;;;;;;;28.50;71.90;;;;;;4999408;28;19914;-68
2023/07/18 16:35:58;;;;;;;;;;;28.40;72.50;;;;;;4999287;28;19916;-68
2023/07/18 16:38:23;;;;;;;;;;;28.60;72.20;;;;;;4997859;28;19910;-68
2023/07/18 16:40:49;;;;;;;;;;;28.50;72.10;;;;;;4998023;28;19976;-70
2023/07/18 16:43:14;;;;;;;;;;;28.60;72.00;;;;;;4996683;28;19909;-68
2023/07/18 16:45:39;;;;;;;;;;;28.60;72.80;;;;;;4999053;28;19910;-68
2023/07/18 16:48:05;;;;;;;;;;;28.50;73.80;;;;;;4996872;28;19913;-71
2023/07/18 16:50:31;;;;;;;;;;;28.50;73.20;;;;;;4996962;28;19914;-69
2023/07/18 16:52:56;;;;;;;;;;;28.60;73.50;;;;;;4997996;28;20301;-69
2023/07/18 16:55:22;;;;;;;;;;;28.70;73.00;;;;;;4997355;28;19914;-70
2023/07/18 16:57:47;;;;;;;;;;;28.70;73.10;;;;;;4986445;28;19917;-69
2023/07/18 17:00:14;;;;;;;;;;;28.60;73.50;;;;;;4987693;28;19910;-70
2023/07/18 17:02:40;;;;;;;;;;;28.50;73.50;;;;;;4985093;28;19910;-69
2023/07/18 17:05:06;;;;;;;;;;;28.50;73.10;;;;;;4987623;28;19992;-69
2023/07/18 17:07:31;;;;;;;;;;;28.40;73.70;;;;;;4994917;28;19922;-69
2023/07/18 17:09:59;;;;;;;;;;;28.30;74.70;;;;;;4996889;28;19942;-69
2023/07/18 17:12:24;;;;;;;;;;;28.40;74.50;;;;;;4995341;28;19945;-68
2023/07/18 17:14:50;;;;;;;;;;;28.50;74.30;;;;;;4981124;28;20363;-68
2023/07/18 17:17:15;;;;;;;;;;;28.40;74.10;;;;;;4996959;28;19910;-69
2023/07/18 17:19:41;;;;;;;;;;;28.50;74.20;;;;;;4997038;28;19914;-68
2023/07/18 17:22:09;;;;;;;;;;;28.50;74.40;;;;;;4994617;28;20254;-69
2023/07/18 17:24:38;;;;;;;;;;;28.40;74.40;;;;;;4984582;28;19964;-70
2023/07/18 17:27:05;;;;;;;;;;;28.30;74.80;;;;;;4995948;28;19914;-68
2023/07/18 17:29:31;;;;;;;;;;;28.30;74.70;;;;;;4999900;28;20053;-69
2023/07/18 17:31:56;;;;;;;;;;;28.30;74.80;;;;;;4997760;28;19972;-69
2023/07/18 17:34:22;;;;;;;;;;;28.20;75.10;;;;;;4996093;28;19917;-68
2023/07/18 17:36:50;;;;;;;;;;;28.10;73.80;;;;;;4998758;28;19910;-67
2023/07/18 17:39:16;;;;;;;;;;;27.90;74.30;;;;;;4999911;28;19914;-68
2023/07/18 17:41:42;;;;;;;;;;;27.80;74.40;;;;;;4996528;28;19914;-68
2023/07/18 17:44:07;;;;;;;;;;;27.70;74.30;;;;;;4999212;28;20385;-69
2023/07/18 17:46:33;;;;;;;;;;;27.50;74.80;;;;;;4991447;28;19989;-68
2023/07/18 17:48:58;;;;;;;;;;;27.40;75.00;;;;;;4991010;28;19932;-68
2023/07/18 17:51:23;;;;;;;;;;;27.40;75.40;;;;;;4991655;28;20506;-68
2023/07/18 17:53:50;;;;;;;;;;;27.30;76.00;;;;;;4991814;28;19910;-68
2023/07/18 17:56:16;;;;;;;;;;;27.30;75.50;;;;;;4999896;28;19945;-69
2023/07/18 17:58:42;;;;;;;;;;;27.40;75.20;;;;;;4998538;28;20264;-69
2023/07/18 18:01:08;;;;;;;;;;;27.30;76.10;;;;;;5000033;28;20393;-69
2023/07/18 18:03:33;;;;;;;;;;;27.50;75.00;;;;;;5000990;28;19910;-69
2023/07/18 18:05:59;;;;;;;;;;;27.50;75.10;;;;;;5000465;28;19914;-68
2023/07/18 18:08:25;;;;;;;;;;;27.40;75.50;;;;;;5000076;28;19917;-69
2023/07/18 18:10:51;;;;;;;;;;;27.30;76.00;;;;;;5000044;28;19914;-68